sensor_id;sensor_type;location;lat;lon;timestamp;temperature;humidity
16160;DHT22;8185;57.818;15.224;2022-07-06T00:00:25;10.90;99.90
16160;DHT22;8185;57.818;15.224;2022-07-06T00:02:53;10.90;99.90
16160;DHT22;8185;57.818;15.224;2022-07-06T00:05:20;10.80;99.90
16160;DHT22;8185;57.818;15.224;2022-07-06T00:07:47;10.80;99.90
16160;DHT22;8185;57.818;15.224;2022-07-06T00:10:15;10.80;99.90
16160;DHT22;8185;57.818;15.224;2022-07-06T00:12:43;10.80;99.90
16160;DHT22;8185;57.818;15.224;2022-07-06T00:15:10;10.80;99.90
16160;DHT22;8185;57.818;15.224;2022-07-06T00:17:38;10.80;99.90
16160;DHT22;8185;57.818;15.224;2022-07-06T00:20:06;10.80;99.90
16160;DHT22;8185;57.818;15.224;2022-07-06T00:22:33;10.70;99.90
16160;DHT22;8185;57.818;15.224;2022-07-06T00:25:00;10.70;99.90
16160;DHT22;8185;57.818;15.224;2022-07-06T00:27:27;10.60;99.90
16160;DHT22;8185;57.818;15.224;2022-07-06T00:29:56;10.60;99.90
16160;DHT22;8185;57.818;15.224;2022-07-06T00:32:23;10.50;99.90
16160;DHT22;8185;57.818;15.224;2022-07-06T00:34:53;10.40;99.90
16160;DHT22;8185;57.818;15.224;2022-07-06T00:37:20;10.40;99.90
16160;DHT22;8185;57.818;15.224;2022-07-06T00:39:48;10.40;99.90
16160;DHT22;8185;57.818;15.224;2022-07-06T00:42:15;10.30;99.90
16160;DHT22;8185;57.818;15.224;2022-07-06T00:44:42;10.30;99.90
16160;DHT22;8185;57.818;15.224;2022-07-06T00:47:11;10.30;99.90
16160;DHT22;8185;57.818;15.224;2022-07-06T00:49:38;10.20;99.90
16160;DHT22;8185;57.818;15.224;2022-07-06T00:52:23;10.20;99.90
16160;DHT22;8185;57.818;15.224;2022-07-06T00:54:50;10.10;99.90
16160;DHT22;8185;57.818;15.224;2022-07-06T00:57:18;10.10;99.90
16160;DHT22;8185;57.818;15.224;2022-07-06T00:59:45;10.10;99.90
16160;DHT22;8185;57.818;15.224;2022-07-06T01:02:14;10.20;99.90
16160;DHT22;8185;57.818;15.224;2022-07-06T01:04:42;10.20;99.90
16160;DHT22;8185;57.818;15.224;2022-07-06T01:07:09;10.30;99.90
16160;DHT22;8185;57.818;15.224;2022-07-06T01:09:37;10.40;99.90
16160;DHT22;8185;57.818;15.224;2022-07-06T01:12:05;10.40;99.90
16160;DHT22;8185;57.818;15.224;2022-07-06T01:14:33;10.40;99.90
16160;DHT22;8185;57.818;15.224;2022-07-06T01:17:00;10.50;99.90
16160;DHT22;8185;57.818;15.224;2022-07-06T01:19:29;10.40;99.90
16160;DHT22;8185;57.818;15.224;2022-07-06T01:21:58;10.50;99.90
16160;DHT22;8185;57.818;15.224;2022-07-06T01:24:25;10.40;99.90
16160;DHT22;8185;57.818;15.224;2022-07-06T01:26:53;10.40;99.90
16160;DHT22;8185;57.818;15.224;2022-07-06T01:29:20;10.50;99.90
16160;DHT22;8185;57.818;15.224;2022-07-06T01:31:48;10.50;99.90
16160;DHT22;8185;57.818;15.224;2022-07-06T01:34:16;10.50;99.90
16160;DHT22;8185;57.818;15.224;2022-07-06T01:36:44;10.40;99.90
16160;DHT22;8185;57.818;15.224;2022-07-06T01:39:13;10.50;99.90
16160;DHT22;8185;57.818;15.224;2022-07-06T01:41:40;10.50;99.90
16160;DHT22;8185;57.818;15.224;2022-07-06T01:44:08;10.50;99.90
16160;DHT22;8185;57.818;15.224;2022-07-06T01:46:35;10.50;99.90
16160;DHT22;8185;57.818;15.224;2022-07-06T01:49:03;10.50;99.90
16160;DHT22;8185;57.818;15.224;2022-07-06T01:51:30;10.50;99.90
16160;DHT22;8185;57.818;15.224;2022-07-06T01:53:58;10.40;99.90
16160;DHT22;8185;57.818;15.224;2022-07-06T01:56:26;10.40;99.90
16160;DHT22;8185;57.818;15.224;2022-07-06T01:58:54;10.40;99.90
16160;DHT22;8185;57.818;15.224;2022-07-06T02:01:21;10.30;99.90
16160;DHT22;8185;57.818;15.224;2022-07-06T02:03:48;10.30;99.90
16160;DHT22;8185;57.818;15.224;2022-07-06T02:06:16;10.30;99.90
16160;DHT22;8185;57.818;15.224;2022-07-06T02:08:43;10.30;99.90
16160;DHT22;8185;57.818;15.224;2022-07-06T02:11:10;10.20;99.90
16160;DHT22;8185;57.818;15.224;2022-07-06T02:13:39;10.20;99.90
16160;DHT22;8185;57.818;15.224;2022-07-06T02:16:08;10.20;99.90
16160;DHT22;8185;57.818;15.224;2022-07-06T02:18:36;10.30;99.90
16160;DHT22;8185;57.818;15.224;2022-07-06T02:21:04;10.30;99.90
16160;DHT22;8185;57.818;15.224;2022-07-06T02:23:31;10.30;99.90
16160;DHT22;8185;57.818;15.224;2022-07-06T02:25:58;10.30;99.90
16160;DHT22;8185;57.818;15.224;2022-07-06T02:28:26;10.30;99.90
16160;DHT22;8185;57.818;15.224;2022-07-06T02:30:54;10.30;99.90
16160;DHT22;8185;57.818;15.224;2022-07-06T02:33:25;10.30;99.90
16160;DHT22;8185;57.818;15.224;2022-07-06T02:35:52;10.30;99.90
16160;DHT22;8185;57.818;15.224;2022-07-06T02:38:19;10.30;99.90
16160;DHT22;8185;57.818;15.224;2022-07-06T02:40:47;10.30;99.90
16160;DHT22;8185;57.818;15.224;2022-07-06T02:43:14;10.30;99.90
16160;DHT22;8185;57.818;15.224;2022-07-06T02:45:42;10.30;99.90
16160;DHT22;8185;57.818;15.224;2022-07-06T02:48:10;10.30;99.90
16160;DHT22;8185;57.818;15.224;2022-07-06T02:50:38;10.30;99.90
16160;DHT22;8185;57.818;15.224;2022-07-06T02:53:05;10.40;99.90
16160;DHT22;8185;57.818;15.224;2022-07-06T02:55:32;10.30;99.90
16160;DHT22;8185;57.818;15.224;2022-07-06T02:57:59;10.30;99.90
16160;DHT22;8185;57.818;15.224;2022-07-06T03:00:27;10.20;99.90
16160;DHT22;8185;57.818;15.224;2022-07-06T03:02:54;10.20;99.90
16160;DHT22;8185;57.818;15.224;2022-07-06T03:05:23;10.20;99.90
16160;DHT22;8185;57.818;15.224;2022-07-06T03:07:50;10.20;99.90
16160;DHT22;8185;57.818;15.224;2022-07-06T03:10:17;10.20;99.90
16160;DHT22;8185;57.818;15.224;2022-07-06T03:12:44;10.20;99.90
16160;DHT22;8185;57.818;15.224;2022-07-06T03:15:12;10.20;99.90
16160;DHT22;8185;57.818;15.224;2022-07-06T03:17:39;10.30;99.90
16160;DHT22;8185;57.818;15.224;2022-07-06T03:20:07;10.30;99.90
16160;DHT22;8185;57.818;15.224;2022-07-06T03:22:36;10.30;99.90
16160;DHT22;8185;57.818;15.224;2022-07-06T03:25:03;10.40;99.90
16160;DHT22;8185;57.818;15.224;2022-07-06T03:27:31;10.40;99.90
16160;DHT22;8185;57.818;15.224;2022-07-06T03:29:59;10.40;99.90
16160;DHT22;8185;57.818;15.224;2022-07-06T03:32:26;10.50;99.90
16160;DHT22;8185;57.818;15.224;2022-07-06T03:34:55;10.60;99.90
16160;DHT22;8185;57.818;15.224;2022-07-06T03:37:22;10.60;99.90
16160;DHT22;8185;57.818;15.224;2022-07-06T03:39:51;10.70;99.90
16160;DHT22;8185;57.818;15.224;2022-07-06T03:42:18;10.80;99.90
16160;DHT22;8185;57.818;15.224;2022-07-06T03:44:45;10.90;99.90
16160;DHT22;8185;57.818;15.224;2022-07-06T03:47:13;10.90;99.90
16160;DHT22;8185;57.818;15.224;2022-07-06T03:49:40;10.90;99.90
16160;DHT22;8185;57.818;15.224;2022-07-06T03:52:07;11.00;99.90
16160;DHT22;8185;57.818;15.224;2022-07-06T03:54:34;11.00;99.90
16160;DHT22;8185;57.818;15.224;2022-07-06T03:57:03;11.10;99.90
16160;DHT22;8185;57.818;15.224;2022-07-06T03:59:31;11.10;99.90
16160;DHT22;8185;57.818;15.224;2022-07-06T04:01:58;11.20;99.90
16160;DHT22;8185;57.818;15.224;2022-07-06T04:04:25;11.20;99.90
16160;DHT22;8185;57.818;15.224;2022-07-06T04:06:53;11.30;99.90
16160;DHT22;8185;57.818;15.224;2022-07-06T04:09:20;11.30;99.90
16160;DHT22;8185;57.818;15.224;2022-07-06T04:11:47;11.30;99.90
16160;DHT22;8185;57.818;15.224;2022-07-06T04:14:16;11.30;99.90
16160;DHT22;8185;57.818;15.224;2022-07-06T04:16:45;11.40;99.90
16160;DHT22;8185;57.818;15.224;2022-07-06T04:19:12;11.40;99.90
16160;DHT22;8185;57.818;15.224;2022-07-06T04:21:40;11.50;99.90
16160;DHT22;8185;57.818;15.224;2022-07-06T04:24:07;11.60;99.90
16160;DHT22;8185;57.818;15.224;2022-07-06T04:26:35;11.70;99.90
16160;DHT22;8185;57.818;15.224;2022-07-06T04:29:02;11.70;99.90
16160;DHT22;8185;57.818;15.224;2022-07-06T04:31:31;11.80;99.90
16160;DHT22;8185;57.818;15.224;2022-07-06T04:33:58;11.80;99.90
16160;DHT22;8185;57.818;15.224;2022-07-06T04:36:25;11.80;99.90
16160;DHT22;8185;57.818;15.224;2022-07-06T04:38:53;11.90;99.90
16160;DHT22;8185;57.818;15.224;2022-07-06T04:41:20;11.90;99.90
16160;DHT22;8185;57.818;15.224;2022-07-06T04:43:47;12.00;99.90
16160;DHT22;8185;57.818;15.224;2022-07-06T04:46:14;12.10;99.90
16160;DHT22;8185;57.818;15.224;2022-07-06T04:48:43;12.20;99.90
16160;DHT22;8185;57.818;15.224;2022-07-06T04:51:10;12.30;99.90
16160;DHT22;8185;57.818;15.224;2022-07-06T04:53:38;12.40;99.90
16160;DHT22;8185;57.818;15.224;2022-07-06T04:56:06;12.50;99.90
16160;DHT22;8185;57.818;15.224;2022-07-06T04:58:33;12.60;99.90
16160;DHT22;8185;57.818;15.224;2022-07-06T05:01:01;12.70;99.90
16160;DHT22;8185;57.818;15.224;2022-07-06T05:03:28;12.70;99.90
16160;DHT22;8185;57.818;15.224;2022-07-06T05:05:56;12.70;99.90
16160;DHT22;8185;57.818;15.224;2022-07-06T05:08:24;12.80;99.90
16160;DHT22;8185;57.818;15.224;2022-07-06T05:10:51;12.90;99.90
16160;DHT22;8185;57.818;15.224;2022-07-06T05:13:18;12.90;99.90
16160;DHT22;8185;57.818;15.224;2022-07-06T05:15:46;13.00;99.90
16160;DHT22;8185;57.818;15.224;2022-07-06T05:18:13;12.90;99.90
16160;DHT22;8185;57.818;15.224;2022-07-06T05:20:40;13.00;99.90
16160;DHT22;8185;57.818;15.224;2022-07-06T05:23:10;13.00;99.90
16160;DHT22;8185;57.818;15.224;2022-07-06T05:25:37;13.00;99.90
16160;DHT22;8185;57.818;15.224;2022-07-06T05:28:04;13.10;99.90
16160;DHT22;8185;57.818;15.224;2022-07-06T05:30:32;13.20;99.90
16160;DHT22;8185;57.818;15.224;2022-07-06T05:32:59;13.30;99.90
16160;DHT22;8185;57.818;15.224;2022-07-06T05:35:26;13.40;99.90
16160;DHT22;8185;57.818;15.224;2022-07-06T05:37:54;13.40;99.90
16160;DHT22;8185;57.818;15.224;2022-07-06T05:40:22;13.50;99.90
16160;DHT22;8185;57.818;15.224;2022-07-06T05:42:50;13.60;99.90
16160;DHT22;8185;57.818;15.224;2022-07-06T05:45:17;13.60;99.90
16160;DHT22;8185;57.818;15.224;2022-07-06T05:47:44;13.70;99.90
16160;DHT22;8185;57.818;15.224;2022-07-06T05:50:28;13.80;99.90
16160;DHT22;8185;57.818;15.224;2022-07-06T05:52:57;14.00;99.90
16160;DHT22;8185;57.818;15.224;2022-07-06T05:55:26;14.10;99.90
16160;DHT22;8185;57.818;15.224;2022-07-06T05:57:53;14.10;99.90
16160;DHT22;8185;57.818;15.224;2022-07-06T06:00:22;14.10;99.90
16160;DHT22;8185;57.818;15.224;2022-07-06T06:02:50;14.00;99.90
16160;DHT22;8185;57.818;15.224;2022-07-06T06:05:17;14.10;99.90
16160;DHT22;8185;57.818;15.224;2022-07-06T06:07:45;14.30;99.90
16160;DHT22;8185;57.818;15.224;2022-07-06T06:10:15;14.30;99.90
16160;DHT22;8185;57.818;15.224;2022-07-06T06:12:44;14.30;99.90
16160;DHT22;8185;57.818;15.224;2022-07-06T06:15:13;14.40;99.90
16160;DHT22;8185;57.818;15.224;2022-07-06T06:17:40;14.40;99.90
16160;DHT22;8185;57.818;15.224;2022-07-06T06:20:10;14.20;99.90
16160;DHT22;8185;57.818;15.224;2022-07-06T06:22:47;14.30;99.90
16160;DHT22;8185;57.818;15.224;2022-07-06T06:25:15;14.40;99.90
16160;DHT22;8185;57.818;15.224;2022-07-06T06:27:44;14.30;99.90
16160;DHT22;8185;57.818;15.224;2022-07-06T06:30:12;14.50;99.90
16160;DHT22;8185;57.818;15.224;2022-07-06T06:32:40;14.50;99.90
16160;DHT22;8185;57.818;15.224;2022-07-06T06:35:08;14.70;99.90
16160;DHT22;8185;57.818;15.224;2022-07-06T06:37:35;14.70;99.90
16160;DHT22;8185;57.818;15.224;2022-07-06T06:40:03;14.60;99.90
16160;DHT22;8185;57.818;15.224;2022-07-06T06:42:31;14.60;99.90
16160;DHT22;8185;57.818;15.224;2022-07-06T06:45:00;14.70;99.90
16160;DHT22;8185;57.818;15.224;2022-07-06T06:47:27;14.80;99.90
16160;DHT22;8185;57.818;15.224;2022-07-06T06:49:54;14.90;99.90
16160;DHT22;8185;57.818;15.224;2022-07-06T06:52:22;15.20;99.90
16160;DHT22;8185;57.818;15.224;2022-07-06T06:54:49;15.10;99.90
16160;DHT22;8185;57.818;15.224;2022-07-06T06:57:17;15.30;99.90
16160;DHT22;8185;57.818;15.224;2022-07-06T06:59:44;15.30;99.90
16160;DHT22;8185;57.818;15.224;2022-07-06T07:02:12;15.20;99.90
16160;DHT22;8185;57.818;15.224;2022-07-06T07:04:39;15.20;99.90
16160;DHT22;8185;57.818;15.224;2022-07-06T07:07:10;15.20;99.90
16160;DHT22;8185;57.818;15.224;2022-07-06T07:09:37;15.40;99.90
16160;DHT22;8185;57.818;15.224;2022-07-06T07:12:05;15.70;99.90
16160;DHT22;8185;57.818;15.224;2022-07-06T07:14:32;15.60;99.90
16160;DHT22;8185;57.818;15.224;2022-07-06T07:16:59;15.60;99.90
16160;DHT22;8185;57.818;15.224;2022-07-06T07:19:28;15.60;99.90
16160;DHT22;8185;57.818;15.224;2022-07-06T07:21:55;15.50;99.90
16160;DHT22;8185;57.818;15.224;2022-07-06T07:24:22;15.60;99.90
16160;DHT22;8185;57.818;15.224;2022-07-06T07:26:50;15.60;99.90
16160;DHT22;8185;57.818;15.224;2022-07-06T07:29:17;15.80;99.90
16160;DHT22;8185;57.818;15.224;2022-07-06T07:31:44;15.80;99.90
16160;DHT22;8185;57.818;15.224;2022-07-06T07:34:11;16.00;99.90
16160;DHT22;8185;57.818;15.224;2022-07-06T07:36:40;16.10;99.90
16160;DHT22;8185;57.818;15.224;2022-07-06T07:39:07;16.30;99.90
16160;DHT22;8185;57.818;15.224;2022-07-06T07:41:35;16.30;99.90
16160;DHT22;8185;57.818;15.224;2022-07-06T07:44:02;16.30;99.90
16160;DHT22;8185;57.818;15.224;2022-07-06T07:46:29;16.30;99.90
16160;DHT22;8185;57.818;15.224;2022-07-06T07:48:56;16.30;99.90
16160;DHT22;8185;57.818;15.224;2022-07-06T07:51:24;16.60;99.90
16160;DHT22;8185;57.818;15.224;2022-07-06T07:53:53;16.50;99.90
16160;DHT22;8185;57.818;15.224;2022-07-06T07:56:20;16.60;99.90
16160;DHT22;8185;57.818;15.224;2022-07-06T07:58:47;16.80;99.90
16160;DHT22;8185;57.818;15.224;2022-07-06T08:01:15;16.90;99.90
16160;DHT22;8185;57.818;15.224;2022-07-06T08:03:42;16.90;99.90
16160;DHT22;8185;57.818;15.224;2022-07-06T08:06:10;16.90;99.90
16160;DHT22;8185;57.818;15.224;2022-07-06T08:08:37;17.00;99.90
16160;DHT22;8185;57.818;15.224;2022-07-06T08:11:06;17.30;99.90
16160;DHT22;8185;57.818;15.224;2022-07-06T08:13:34;17.40;99.90
16160;DHT22;8185;57.818;15.224;2022-07-06T08:16:04;17.50;99.90
16160;DHT22;8185;57.818;15.224;2022-07-06T08:18:32;17.60;99.90
16160;DHT22;8185;57.818;15.224;2022-07-06T08:20:59;17.40;99.90
16160;DHT22;8185;57.818;15.224;2022-07-06T08:23:27;17.10;99.90
16160;DHT22;8185;57.818;15.224;2022-07-06T08:25:54;17.10;99.90
16160;DHT22;8185;57.818;15.224;2022-07-06T08:28:23;16.70;99.90
16160;DHT22;8185;57.818;15.224;2022-07-06T08:30:50;17.20;99.90
16160;DHT22;8185;57.818;15.224;2022-07-06T08:33:17;17.30;99.90
16160;DHT22;8185;57.818;15.224;2022-07-06T08:35:44;17.40;99.90
16160;DHT22;8185;57.818;15.224;2022-07-06T08:38:12;17.30;99.90
16160;DHT22;8185;57.818;15.224;2022-07-06T08:40:40;17.40;99.90
16160;DHT22;8185;57.818;15.224;2022-07-06T08:43:08;17.70;99.90
16160;DHT22;8185;57.818;15.224;2022-07-06T08:45:37;18.00;99.90
16160;DHT22;8185;57.818;15.224;2022-07-06T08:48:06;17.70;99.90
16160;DHT22;8185;57.818;15.224;2022-07-06T08:50:34;18.00;99.90
16160;DHT22;8185;57.818;15.224;2022-07-06T08:53:01;18.30;99.90
16160;DHT22;8185;57.818;15.224;2022-07-06T08:55:29;18.20;99.90
16160;DHT22;8185;57.818;15.224;2022-07-06T08:57:57;18.50;99.90
16160;DHT22;8185;57.818;15.224;2022-07-06T09:00:25;18.50;99.90
16160;DHT22;8185;57.818;15.224;2022-07-06T09:02:54;18.40;99.90
16160;DHT22;8185;57.818;15.224;2022-07-06T09:05:24;18.40;99.90
16160;DHT22;8185;57.818;15.224;2022-07-06T09:07:52;18.60;99.90
16160;DHT22;8185;57.818;15.224;2022-07-06T09:10:21;19.10;99.90
16160;DHT22;8185;57.818;15.224;2022-07-06T09:12:48;19.00;99.90
16160;DHT22;8185;57.818;15.224;2022-07-06T09:15:16;18.60;99.90
16160;DHT22;8185;57.818;15.224;2022-07-06T09:17:44;19.10;99.90
16160;DHT22;8185;57.818;15.224;2022-07-06T09:20:13;19.00;99.90
16160;DHT22;8185;57.818;15.224;2022-07-06T09:22:41;18.30;99.90
16160;DHT22;8185;57.818;15.224;2022-07-06T09:25:10;17.80;99.90
16160;DHT22;8185;57.818;15.224;2022-07-06T09:27:38;18.00;99.90
16160;DHT22;8185;57.818;15.224;2022-07-06T09:30:08;18.70;99.90
16160;DHT22;8185;57.818;15.224;2022-07-06T09:32:40;19.30;99.90
16160;DHT22;8185;57.818;15.224;2022-07-06T09:35:08;18.90;99.90
16160;DHT22;8185;57.818;15.224;2022-07-06T09:37:36;18.30;99.90
16160;DHT22;8185;57.818;15.224;2022-07-06T09:40:16;17.60;99.90
16160;DHT22;8185;57.818;15.224;2022-07-06T09:42:45;17.50;99.90
16160;DHT22;8185;57.818;15.224;2022-07-06T09:45:12;18.00;99.90
16160;DHT22;8185;57.818;15.224;2022-07-06T09:47:46;18.90;99.90
16160;DHT22;8185;57.818;15.224;2022-07-06T09:50:16;18.20;99.90
16160;DHT22;8185;57.818;15.224;2022-07-06T09:52:55;18.00;99.90
16160;DHT22;8185;57.818;15.224;2022-07-06T09:55:22;17.50;99.90
16160;DHT22;8185;57.818;15.224;2022-07-06T09:57:53;17.70;99.90
16160;DHT22;8185;57.818;15.224;2022-07-06T10:00:22;17.70;99.90
16160;DHT22;8185;57.818;15.224;2022-07-06T10:02:49;17.60;99.90
16160;DHT22;8185;57.818;15.224;2022-07-06T10:05:18;17.70;99.90
16160;DHT22;8185;57.818;15.224;2022-07-06T10:07:46;17.70;99.90
16160;DHT22;8185;57.818;15.224;2022-07-06T10:10:19;17.80;99.90
16160;DHT22;8185;57.818;15.224;2022-07-06T10:12:46;17.90;99.90
16160;DHT22;8185;57.818;15.224;2022-07-06T10:15:17;17.70;99.90
16160;DHT22;8185;57.818;15.224;2022-07-06T10:17:46;17.60;99.90
16160;DHT22;8185;57.818;15.224;2022-07-06T10:20:14;18.30;99.90
16160;DHT22;8185;57.818;15.224;2022-07-06T10:22:43;18.60;99.90
16160;DHT22;8185;57.818;15.224;2022-07-06T10:25:11;18.30;99.90
16160;DHT22;8185;57.818;15.224;2022-07-06T10:27:40;18.10;99.90
16160;DHT22;8185;57.818;15.224;2022-07-06T10:30:09;17.90;99.90
16160;DHT22;8185;57.818;15.224;2022-07-06T10:32:38;17.80;99.90
16160;DHT22;8185;57.818;15.224;2022-07-06T10:35:07;17.70;99.90
16160;DHT22;8185;57.818;15.224;2022-07-06T10:37:34;17.70;99.90
16160;DHT22;8185;57.818;15.224;2022-07-06T10:40:02;17.80;99.90
16160;DHT22;8185;57.818;15.224;2022-07-06T10:42:49;18.00;99.90
16160;DHT22;8185;57.818;15.224;2022-07-06T10:48:34;19.20;99.70
16160;DHT22;8185;57.818;15.224;2022-07-06T10:51:02;19.60;99.50
16160;DHT22;8185;57.818;15.224;2022-07-06T10:53:32;19.30;99.90
16160;DHT22;8185;57.818;15.224;2022-07-06T10:56:03;19.10;99.90
16160;DHT22;8185;57.818;15.224;2022-07-06T10:58:51;18.70;99.90
16160;DHT22;8185;57.818;15.224;2022-07-06T11:01:19;18.60;99.90
16160;DHT22;8185;57.818;15.224;2022-07-06T11:03:49;18.60;99.90
16160;DHT22;8185;57.818;15.224;2022-07-06T11:06:18;18.60;99.90
16160;DHT22;8185;57.818;15.224;2022-07-06T11:08:48;18.70;99.90
16160;DHT22;8185;57.818;15.224;2022-07-06T11:11:17;18.80;99.90
16160;DHT22;8185;57.818;15.224;2022-07-06T11:13:58;19.50;99.90
16160;DHT22;8185;57.818;15.224;2022-07-06T11:16:29;21.00;98.70
16160;DHT22;8185;57.818;15.224;2022-07-06T11:19:05;21.10;98.60
16160;DHT22;8185;57.818;15.224;2022-07-06T11:21:37;20.00;96.50
16160;DHT22;8185;57.818;15.224;2022-07-06T11:24:07;19.40;97.50
16160;DHT22;8185;57.818;15.224;2022-07-06T11:26:35;18.90;98.40
16160;DHT22;8185;57.818;15.224;2022-07-06T11:29:05;18.60;99.10
16160;DHT22;8185;57.818;15.224;2022-07-06T11:31:35;19.40;98.10
16160;DHT22;8185;57.818;15.224;2022-07-06T11:34:04;20.30;97.40
16160;DHT22;8185;57.818;15.224;2022-07-06T11:36:32;19.80;97.50
16160;DHT22;8185;57.818;15.224;2022-07-06T11:38:59;19.30;97.00
16160;DHT22;8185;57.818;15.224;2022-07-06T11:41:26;19.70;97.50
16160;DHT22;8185;57.818;15.224;2022-07-06T11:43:54;19.30;96.10
16160;DHT22;8185;57.818;15.224;2022-07-06T11:46:24;19.30;96.20
16160;DHT22;8185;57.818;15.224;2022-07-06T11:48:53;20.00;96.20
16160;DHT22;8185;57.818;15.224;2022-07-06T11:51:21;21.50;94.80
16160;DHT22;8185;57.818;15.224;2022-07-06T11:53:51;21.80;93.20
16160;DHT22;8185;57.818;15.224;2022-07-06T11:56:19;21.30;94.30
16160;DHT22;8185;57.818;15.224;2022-07-06T11:58:49;20.80;93.20
16160;DHT22;8185;57.818;15.224;2022-07-06T12:01:17;21.20;94.20
16160;DHT22;8185;57.818;15.224;2022-07-06T12:03:46;21.80;93.90
16160;DHT22;8185;57.818;15.224;2022-07-06T12:06:18;21.40;91.20
16160;DHT22;8185;57.818;15.224;2022-07-06T12:08:47;22.20;91.60
16160;DHT22;8185;57.818;15.224;2022-07-06T12:11:22;22.50;89.60
16160;DHT22;8185;57.818;15.224;2022-07-06T12:13:50;23.50;87.70
16160;DHT22;8185;57.818;15.224;2022-07-06T12:16:19;23.50;87.70
16160;DHT22;8185;57.818;15.224;2022-07-06T12:18:50;23.10;89.30
16160;DHT22;8185;57.818;15.224;2022-07-06T12:21:19;21.60;91.00
16160;DHT22;8185;57.818;15.224;2022-07-06T12:23:48;22.10;89.20
16160;DHT22;8185;57.818;15.224;2022-07-06T12:26:17;22.00;87.50
16160;DHT22;8185;57.818;15.224;2022-07-06T12:28:45;23.40;87.60
16160;DHT22;8185;57.818;15.224;2022-07-06T12:31:32;23.20;84.50
16160;DHT22;8185;57.818;15.224;2022-07-06T12:34:01;22.30;83.20
16160;DHT22;8185;57.818;15.224;2022-07-06T12:36:29;22.40;87.10
16160;DHT22;8185;57.818;15.224;2022-07-06T12:38:56;23.00;87.50
16160;DHT22;8185;57.818;15.224;2022-07-06T12:41:32;23.60;83.10
16160;DHT22;8185;57.818;15.224;2022-07-06T12:44:04;23.70;80.30
16160;DHT22;8185;57.818;15.224;2022-07-06T12:46:34;24.10;78.30
16160;DHT22;8185;57.818;15.224;2022-07-06T12:49:10;23.60;80.50
16160;DHT22;8185;57.818;15.224;2022-07-06T12:51:58;23.00;79.70
16160;DHT22;8185;57.818;15.224;2022-07-06T12:54:28;22.60;83.10
16160;DHT22;8185;57.818;15.224;2022-07-06T12:57:01;23.10;83.70
16160;DHT22;8185;57.818;15.224;2022-07-06T12:59:29;23.00;79.80
16160;DHT22;8185;57.818;15.224;2022-07-06T13:01:57;23.80;81.10
16160;DHT22;8185;57.818;15.224;2022-07-06T13:04:27;24.80;78.70
16160;DHT22;8185;57.818;15.224;2022-07-06T13:06:55;22.40;78.00
16160;DHT22;8185;57.818;15.224;2022-07-06T13:09:24;21.40;81.60
16160;DHT22;8185;57.818;15.224;2022-07-06T13:11:51;20.60;83.90
16160;DHT22;8185;57.818;15.224;2022-07-06T13:14:19;20.00;84.50
16160;DHT22;8185;57.818;15.224;2022-07-06T13:16:47;20.70;87.00
16160;DHT22;8185;57.818;15.224;2022-07-06T13:19:14;20.30;88.70
16160;DHT22;8185;57.818;15.224;2022-07-06T13:21:43;20.10;87.50
16160;DHT22;8185;57.818;15.224;2022-07-06T13:24:12;20.20;87.60
16160;DHT22;8185;57.818;15.224;2022-07-06T13:26:39;20.70;89.10
16160;DHT22;8185;57.818;15.224;2022-07-06T13:29:07;20.70;85.70
16160;DHT22;8185;57.818;15.224;2022-07-06T13:31:37;20.10;88.50
16160;DHT22;8185;57.818;15.224;2022-07-06T13:34:05;19.90;90.20
16160;DHT22;8185;57.818;15.224;2022-07-06T13:36:33;19.60;89.80
16160;DHT22;8185;57.818;15.224;2022-07-06T13:39:02;19.80;89.90
16160;DHT22;8185;57.818;15.224;2022-07-06T13:41:29;21.70;87.30
16160;DHT22;8185;57.818;15.224;2022-07-06T13:43:57;22.90;83.80
16160;DHT22;8185;57.818;15.224;2022-07-06T13:46:26;23.40;79.50
16160;DHT22;8185;57.818;15.224;2022-07-06T13:48:54;21.80;80.50
16160;DHT22;8185;57.818;15.224;2022-07-06T13:51:22;21.80;83.80
16160;DHT22;8185;57.818;15.224;2022-07-06T13:53:50;21.70;84.60
16160;DHT22;8185;57.818;15.224;2022-07-06T13:56:18;21.30;81.80
16160;DHT22;8185;57.818;15.224;2022-07-06T13:58:46;20.40;87.20
16160;DHT22;8185;57.818;15.224;2022-07-06T14:01:13;21.00;86.60
16160;DHT22;8185;57.818;15.224;2022-07-06T14:03:40;20.30;85.40
16160;DHT22;8185;57.818;15.224;2022-07-06T14:06:08;20.00;79.50
16160;DHT22;8185;57.818;15.224;2022-07-06T14:08:36;21.60;81.00
16160;DHT22;8185;57.818;15.224;2022-07-06T14:11:05;23.40;75.50
16160;DHT22;8185;57.818;15.224;2022-07-06T14:13:34;24.60;73.90
16160;DHT22;8185;57.818;15.224;2022-07-06T14:16:03;24.80;73.00
16160;DHT22;8185;57.818;15.224;2022-07-06T14:18:30;24.10;73.00
16160;DHT22;8185;57.818;15.224;2022-07-06T14:20:58;24.30;72.10
16160;DHT22;8185;57.818;15.224;2022-07-06T14:23:26;24.20;73.90
16160;DHT22;8185;57.818;15.224;2022-07-06T14:25:55;23.30;75.30
16160;DHT22;8185;57.818;15.224;2022-07-06T14:28:23;22.50;76.60
16160;DHT22;8185;57.818;15.224;2022-07-06T14:30:52;21.50;82.00
16160;DHT22;8185;57.818;15.224;2022-07-06T14:33:19;20.80;84.00
16160;DHT22;8185;57.818;15.224;2022-07-06T14:35:48;20.30;86.60
16160;DHT22;8185;57.818;15.224;2022-07-06T14:38:16;20.20;86.80
16160;DHT22;8185;57.818;15.224;2022-07-06T14:40:44;21.90;83.00
16160;DHT22;8185;57.818;15.224;2022-07-06T14:43:12;21.60;79.60
16160;DHT22;8185;57.818;15.224;2022-07-06T14:45:39;20.70;81.90
16160;DHT22;8185;57.818;15.224;2022-07-06T14:48:10;20.20;83.30
16160;DHT22;8185;57.818;15.224;2022-07-06T14:50:38;20.90;83.60
16160;DHT22;8185;57.818;15.224;2022-07-06T14:53:05;22.50;79.50
16160;DHT22;8185;57.818;15.224;2022-07-06T14:55:33;23.30;78.50
16160;DHT22;8185;57.818;15.224;2022-07-06T14:58:00;22.90;78.10
16160;DHT22;8185;57.818;15.224;2022-07-06T15:00:27;23.50;77.00
16160;DHT22;8185;57.818;15.224;2022-07-06T15:02:56;24.50;73.60
16160;DHT22;8185;57.818;15.224;2022-07-06T15:05:25;24.50;75.30
16160;DHT22;8185;57.818;15.224;2022-07-06T15:07:53;23.60;74.90
16160;DHT22;8185;57.818;15.224;2022-07-06T15:10:20;22.50;73.90
16160;DHT22;8185;57.818;15.224;2022-07-06T15:12:47;23.90;74.90
16160;DHT22;8185;57.818;15.224;2022-07-06T15:15:14;24.20;74.90
16160;DHT22;8185;57.818;15.224;2022-07-06T15:17:42;21.80;79.30
16160;DHT22;8185;57.818;15.224;2022-07-06T15:20:10;21.40;82.60
16160;DHT22;8185;57.818;15.224;2022-07-06T15:22:39;20.70;83.00
16160;DHT22;8185;57.818;15.224;2022-07-06T15:25:08;20.00;84.60
16160;DHT22;8185;57.818;15.224;2022-07-06T15:27:35;19.70;88.90
16160;DHT22;8185;57.818;15.224;2022-07-06T15:30:03;19.60;86.40
16160;DHT22;8185;57.818;15.224;2022-07-06T15:32:31;21.70;81.80
16160;DHT22;8185;57.818;15.224;2022-07-06T15:34:58;22.70;76.90
16160;DHT22;8185;57.818;15.224;2022-07-06T15:37:26;21.90;77.60
16160;DHT22;8185;57.818;15.224;2022-07-06T15:39:55;20.90;80.70